sensor_id;sensor_type;location;lat;lon;timestamp;pressure;altitude;pressure_sealevel;temperature
60731;BMP280;46580;52.114;11.674;2022-07-23T00:00:45;101204.50;;;18.84
60731;BMP280;46580;52.114;11.674;2022-07-23T00:03:11;101199.75;;;18.88
60731;BMP280;46580;52.114;11.674;2022-07-23T00:05:37;101194.88;;;18.85
60731;BMP280;46580;52.114;11.674;2022-07-23T00:08:02;101192.44;;;18.91
60731;BMP280;46580;52.114;11.674;2022-07-23T00:10:27;101191.94;;;18.88
60731;BMP280;46580;52.114;11.674;2022-07-23T00:12:53;101189.81;;;18.83
60731;BMP280;46580;52.114;11.674;2022-07-23T00:15:18;101181.44;;;18.72
60731;BMP280;46580;52.114;11.674;2022-07-23T00:17:44;101183.59;;;18.77
60731;BMP280;46580;52.114;11.674;2022-07-23T00:20:09;101194.69;;;18.79
60731;BMP280;46580;52.114;11.674;2022-07-23T00:22:35;101201.34;;;18.81
60731;BMP280;46580;52.114;11.674;2022-07-23T00:25:00;101192.41;;;18.83
60731;BMP280;46580;52.114;11.674;2022-07-23T00:27:25;101180.00;;;18.78
60731;BMP280;46580;52.114;11.674;2022-07-23T00:29:51;101180.88;;;18.94
60731;BMP280;46580;52.114;11.674;2022-07-23T00:32:16;101186.09;;;18.94
60731;BMP280;46580;52.114;11.674;2022-07-23T00:34:41;101183.81;;;18.91
60731;BMP280;46580;52.114;11.674;2022-07-23T00:37:07;101188.06;;;18.92
60731;BMP280;46580;52.114;11.674;2022-07-23T00:39:32;101187.25;;;18.91
60731;BMP280;46580;52.114;11.674;2022-07-23T00:41:57;101176.47;;;18.94
60731;BMP280;46580;52.114;11.674;2022-07-23T00:44:25;101173.72;;;18.96
60731;BMP280;46580;52.114;11.674;2022-07-23T00:46:57;101178.25;;;18.86
60731;BMP280;46580;52.114;11.674;2022-07-23T00:49:25;101186.06;;;18.86
60731;BMP280;46580;52.114;11.674;2022-07-23T00:51:51;101174.34;;;18.90
60731;BMP280;46580;52.114;11.674;2022-07-23T00:54:17;101180.06;;;19.01
60731;BMP280;46580;52.114;11.674;2022-07-23T00:56:44;101185.28;;;18.93
60731;BMP280;46580;52.114;11.674;2022-07-23T00:59:09;101189.66;;;18.85
60731;BMP280;46580;52.114;11.674;2022-07-23T01:01:35;101189.00;;;18.83
60731;BMP280;46580;52.114;11.674;2022-07-23T01:04:00;101187.03;;;18.85
60731;BMP280;46580;52.114;11.674;2022-07-23T01:06:26;101184.19;;;19.03
60731;BMP280;46580;52.114;11.674;2022-07-23T01:08:53;101182.50;;;18.95
60731;BMP280;46580;52.114;11.674;2022-07-23T01:11:19;101187.69;;;18.87
60731;BMP280;46580;52.114;11.674;2022-07-23T01:13:45;101187.38;;;18.90
60731;BMP280;46580;52.114;11.674;2022-07-23T01:16:10;101182.84;;;18.92
60731;BMP280;46580;52.114;11.674;2022-07-23T01:18:35;101189.31;;;18.88
60731;BMP280;46580;52.114;11.674;2022-07-23T01:21:01;101196.00;;;18.82
60731;BMP280;46580;52.114;11.674;2022-07-23T01:23:26;101192.91;;;18.79
60731;BMP280;46580;52.114;11.674;2022-07-23T01:25:53;101197.03;;;18.97
60731;BMP280;46580;52.114;11.674;2022-07-23T01:28:19;101197.03;;;18.97
60731;BMP280;46580;52.114;11.674;2022-07-23T01:30:45;101190.16;;;18.88
60731;BMP280;46580;52.114;11.674;2022-07-23T01:33:10;101199.75;;;18.88
60731;BMP280;46580;52.114;11.674;2022-07-23T01:35:36;101210.53;;;18.85
60731;BMP280;46580;52.114;11.674;2022-07-23T01:38:01;101218.22;;;18.69
60731;BMP280;46580;52.114;11.674;2022-07-23T01:40:27;101224.97;;;18.55
60731;BMP280;46580;52.114;11.674;2022-07-23T01:42:52;101229.19;;;18.48
60731;BMP280;46580;52.114;11.674;2022-07-23T01:45:17;101216.63;;;18.43
60731;BMP280;46580;52.114;11.674;2022-07-23T01:47:43;101208.94;;;18.42
60731;BMP280;46580;52.114;11.674;2022-07-23T01:50:08;101200.66;;;18.46
60731;BMP280;46580;52.114;11.674;2022-07-23T01:52:34;101191.88;;;18.72
60731;BMP280;46580;52.114;11.674;2022-07-23T01:54:59;101190.03;;;18.65
60731;BMP280;46580;52.114;11.674;2022-07-23T01:57:25;101176.41;;;18.54
60731;BMP280;46580;52.114;11.674;2022-07-23T01:59:50;101179.22;;;18.60
60731;BMP280;46580;52.114;11.674;2022-07-23T02:02:16;101172.41;;;18.67
60731;BMP280;46580;52.114;11.674;2022-07-23T02:04:41;101178.91;;;18.63
60731;BMP280;46580;52.114;11.674;2022-07-23T02:07:06;101183.94;;;18.57
60731;BMP280;46580;52.114;11.674;2022-07-23T02:09:32;101192.81;;;18.39
60731;BMP280;46580;52.114;11.674;2022-07-23T02:11:58;101196.00;;;18.33
60731;BMP280;46580;52.114;11.674;2022-07-23T02:14:24;101188.69;;;18.36
60731;BMP280;46580;52.114;11.674;2022-07-23T02:16:50;101186.34;;;18.50
60731;BMP280;46580;52.114;11.674;2022-07-23T02:19:15;101176.25;;;18.55
60731;BMP280;46580;52.114;11.674;2022-07-23T02:21:41;101160.81;;;18.61
60731;BMP280;46580;52.114;11.674;2022-07-23T02:24:06;101151.50;;;18.84
60731;BMP280;46580;52.114;11.674;2022-07-23T02:26:32;101134.78;;;18.69
60731;BMP280;46580;52.114;11.674;2022-07-23T02:29:03;101123.94;;;18.49
60731;BMP280;46580;52.114;11.674;2022-07-23T02:31:30;101128.91;;;18.35
60731;BMP280;46580;52.114;11.674;2022-07-23T02:33:55;101133.00;;;18.37
60731;BMP280;46580;52.114;11.674;2022-07-23T02:36:21;101128.84;;;18.27
60731;BMP280;46580;52.114;11.674;2022-07-23T02:38:46;101129.97;;;18.49
60731;BMP280;46580;52.114;11.674;2022-07-23T02:41:12;101123.53;;;18.36
60731;BMP280;46580;52.114;11.674;2022-07-23T02:43:37;101122.19;;;18.24
60731;BMP280;46580;52.114;11.674;2022-07-23T02:46:03;101130.91;;;18.16
60731;BMP280;46580;52.114;11.674;2022-07-23T02:48:28;101113.69;;;18.23
60731;BMP280;46580;52.114;11.674;2022-07-23T02:50:54;101130.03;;;18.07
60731;BMP280;46580;52.114;11.674;2022-07-23T02:53:21;101138.63;;;18.00
60731;BMP280;46580;52.114;11.674;2022-07-23T02:55:47;101152.59;;;17.99
60731;BMP280;46580;52.114;11.674;2022-07-23T02:58:12;101169.44;;;17.87
60731;BMP280;46580;52.114;11.674;2022-07-23T03:00:37;101177.28;;;17.87
60731;BMP280;46580;52.114;11.674;2022-07-23T03:03:03;101182.91;;;17.83
60731;BMP280;46580;52.114;11.674;2022-07-23T03:05:28;101173.03;;;17.87
60731;BMP280;46580;52.114;11.674;2022-07-23T03:07:53;101164.84;;;17.99
60731;BMP280;46580;52.114;11.674;2022-07-23T03:10:19;101172.28;;;17.94
60731;BMP280;46580;52.114;11.674;2022-07-23T03:12:44;101163.69;;;18.01
60731;BMP280;46580;52.114;11.674;2022-07-23T03:15:09;101160.47;;;18.07
60731;BMP280;46580;52.114;11.674;2022-07-23T03:17:35;101156.09;;;18.07
60731;BMP280;46580;52.114;11.674;2022-07-23T03:20:00;101142.06;;;18.33
60731;BMP280;46580;52.114;11.674;2022-07-23T03:22:25;101148.19;;;18.17
60731;BMP280;46580;52.114;11.674;2022-07-23T03:24:51;101150.72;;;18.09
60731;BMP280;46580;52.114;11.674;2022-07-23T03:27:20;101158.34;;;18.03
60731;BMP280;46580;52.114;11.674;2022-07-23T03:29:45;101154.16;;;18.09
60731;BMP280;46580;52.114;11.674;2022-07-23T03:32:11;101159.25;;;17.94
60731;BMP280;46580;52.114;11.674;2022-07-23T03:34:36;101160.69;;;17.88
60731;BMP280;46580;52.114;11.674;2022-07-23T03:37:02;101164.56;;;17.85
60731;BMP280;46580;52.114;11.674;2022-07-23T03:39:27;101166.91;;;17.78
60731;BMP280;46580;52.114;11.674;2022-07-23T03:41:52;101177.16;;;17.80
60731;BMP280;46580;52.114;11.674;2022-07-23T03:44:18;101177.78;;;17.74
60731;BMP280;46580;52.114;11.674;2022-07-23T03:46:43;101183.28;;;17.71
60731;BMP280;46580;52.114;11.674;2022-07-23T03:49:08;101174.72;;;17.78
60731;BMP280;46580;52.114;11.674;2022-07-23T03:51:34;101168.38;;;17.81
60731;BMP280;46580;52.114;11.674;2022-07-23T03:53:59;101175.91;;;17.84
60731;BMP280;46580;52.114;11.674;2022-07-23T03:56:25;101191.25;;;17.87
60731;BMP280;46580;52.114;11.674;2022-07-23T03:58:51;101176.56;;;18.03
60731;BMP280;46580;52.114;11.674;2022-07-23T04:01:16;101171.63;;;17.92
60731;BMP280;46580;52.114;11.674;2022-07-23T04:03:41;101167.94;;;18.02
60731;BMP280;46580;52.114;11.674;2022-07-23T04:06:07;101165.59;;;18.16
60731;BMP280;46580;52.114;11.674;2022-07-23T04:08:32;101166.44;;;18.00
60731;BMP280;46580;52.114;11.674;2022-07-23T04:10:58;101179.25;;;17.93
60731;BMP280;46580;52.114;11.674;2022-07-23T04:13:23;101174.06;;;17.93
60731;BMP280;46580;52.114;11.674;2022-07-23T04:15:48;101179.72;;;17.89
60731;BMP280;46580;52.114;11.674;2022-07-23T04:18:15;101188.41;;;17.80
60731;BMP280;46580;52.114;11.674;2022-07-23T04:20:44;101201.88;;;17.76
60731;BMP280;46580;52.114;11.674;2022-07-23T04:23:10;101216.41;;;17.78
60731;BMP280;46580;52.114;11.674;2022-07-23T04:25:35;101224.34;;;17.77
60731;BMP280;46580;52.114;11.674;2022-07-23T04:28:01;101221.06;;;17.75
60731;BMP280;46580;52.114;11.674;2022-07-23T04:30:26;101219.50;;;17.82
60731;BMP280;46580;52.114;11.674;2022-07-23T04:32:52;101220.03;;;17.68
60731;BMP280;46580;52.114;11.674;2022-07-23T04:35:20;101222.56;;;17.77
60731;BMP280;46580;52.114;11.674;2022-07-23T04:37:46;101228.88;;;17.75
60731;BMP280;46580;52.114;11.674;2022-07-23T04:40:12;101222.34;;;17.71
60731;BMP280;46580;52.114;11.674;2022-07-23T04:42:37;101215.94;;;17.83
60731;BMP280;46580;52.114;11.674;2022-07-23T04:45:03;101214.56;;;17.88
60731;BMP280;46580;52.114;11.674;2022-07-23T04:47:29;101219.28;;;17.92
60731;BMP280;46580;52.114;11.674;2022-07-23T04:49:55;101205.03;;;17.96
60731;BMP280;46580;52.114;11.674;2022-07-23T04:52:21;101198.84;;;17.97
60731;BMP280;46580;52.114;11.674;2022-07-23T04:54:46;101182.91;;;18.00
60731;BMP280;46580;52.114;11.674;2022-07-23T04:57:11;101178.56;;;18.08
60731;BMP280;46580;52.114;11.674;2022-07-23T04:59:36;101180.06;;;18.11
60731;BMP280;46580;52.114;11.674;2022-07-23T05:02:02;101181.13;;;18.01
60731;BMP280;46580;52.114;11.674;2022-07-23T05:04:27;101195.84;;;17.75
60731;BMP280;46580;52.114;11.674;2022-07-23T05:06:53;101202.47;;;17.53
60731;BMP280;46580;52.114;11.674;2022-07-23T05:09:18;101207.06;;;17.42
60731;BMP280;46580;52.114;11.674;2022-07-23T05:11:43;101196.06;;;17.48
60731;BMP280;46580;52.114;11.674;2022-07-23T05:14:09;101191.31;;;17.60
60731;BMP280;46580;52.114;11.674;2022-07-23T05:16:37;101180.31;;;17.66
60731;BMP280;46580;52.114;11.674;2022-07-23T05:19:02;101186.19;;;17.68
60731;BMP280;46580;52.114;11.674;2022-07-23T05:21:28;101198.38;;;17.67
60731;BMP280;46580;52.114;11.674;2022-07-23T05:23:53;101206.56;;;17.55
60731;BMP280;46580;52.114;11.674;2022-07-23T05:26:18;101214.88;;;17.42
60731;BMP280;46580;52.114;11.674;2022-07-23T05:28:44;101216.44;;;17.35
60731;BMP280;46580;52.114;11.674;2022-07-23T05:31:09;101207.63;;;17.45
60731;BMP280;46580;52.114;11.674;2022-07-23T05:33:34;101208.88;;;17.58
60731;BMP280;46580;52.114;11.674;2022-07-23T05:36:01;101225.25;;;17.68
60731;BMP280;46580;52.114;11.674;2022-07-23T05:38:28;101216.53;;;17.77
60731;BMP280;46580;52.114;11.674;2022-07-23T05:40:54;101210.47;;;17.86
60731;BMP280;46580;52.114;11.674;2022-07-23T05:43:19;101201.28;;;17.82
60731;BMP280;46580;52.114;11.674;2022-07-23T05:45:44;101207.56;;;17.88
60731;BMP280;46580;52.114;11.674;2022-07-23T05:48:10;101210.22;;;17.96
60731;BMP280;46580;52.114;11.674;2022-07-23T05:50:35;101210.91;;;17.98
60731;BMP280;46580;52.114;11.674;2022-07-23T05:53:00;101215.44;;;17.96
60731;BMP280;46580;52.114;11.674;2022-07-23T05:55:26;101215.59;;;17.95
60731;BMP280;46580;52.114;11.674;2022-07-23T05:57:54;101199.41;;;18.08
60731;BMP280;46580;52.114;11.674;2022-07-23T06:00:20;101200.09;;;18.10
60731;BMP280;46580;52.114;11.674;2022-07-23T06:02:45;101189.81;;;18.09
60731;BMP280;46580;52.114;11.674;2022-07-23T06:05:10;101190.72;;;18.00
60731;BMP280;46580;52.114;11.674;2022-07-23T06:07:36;101176.78;;;18.09
60731;BMP280;46580;52.114;11.674;2022-07-23T06:10:01;101174.19;;;18.09
60731;BMP280;46580;52.114;11.674;2022-07-23T06:12:27;101177.41;;;18.03
60731;BMP280;46580;52.114;11.674;2022-07-23T06:14:52;101175.50;;;18.13
60731;BMP280;46580;52.114;11.674;2022-07-23T06:17:48;101175.75;;;18.27
60731;BMP280;46580;52.114;11.674;2022-07-23T06:20:13;101169.78;;;18.34
60731;BMP280;46580;52.114;11.674;2022-07-23T06:22:39;101169.16;;;18.40
60731;BMP280;46580;52.114;11.674;2022-07-23T06:25:05;101172.13;;;18.20
60731;BMP280;46580;52.114;11.674;2022-07-23T06:27:31;101185.22;;;18.03
60731;BMP280;46580;52.114;11.674;2022-07-23T06:29:56;101186.88;;;18.29
60731;BMP280;46580;52.114;11.674;2022-07-23T06:32:22;101184.19;;;18.21
60731;BMP280;46580;52.114;11.674;2022-07-23T06:34:47;101189.72;;;18.18
60731;BMP280;46580;52.114;11.674;2022-07-23T06:37:12;101188.28;;;18.24
60731;BMP280;46580;52.114;11.674;2022-07-23T06:39:37;101178.56;;;18.33
60731;BMP280;46580;52.114;11.674;2022-07-23T06:42:03;101175.97;;;18.33
60731;BMP280;46580;52.114;11.674;2022-07-23T06:44:28;101185.75;;;18.31
60731;BMP280;46580;52.114;11.674;2022-07-23T06:46:54;101193.16;;;18.43
60731;BMP280;46580;52.114;11.674;2022-07-23T06:49:19;101200.19;;;18.51
60731;BMP280;46580;52.114;11.674;2022-07-23T06:51:44;101194.41;;;18.64
60731;BMP280;46580;52.114;11.674;2022-07-23T06:54:10;101190.84;;;18.41
60731;BMP280;46580;52.114;11.674;2022-07-23T06:56:35;101178.25;;;18.61
60731;BMP280;46580;52.114;11.674;2022-07-23T06:59:01;101166.63;;;18.80
60731;BMP280;46580;52.114;11.674;2022-07-23T07:01:27;101172.63;;;19.06
60731;BMP280;46580;52.114;11.674;2022-07-23T07:03:52;101177.38;;;19.18
60731;BMP280;46580;52.114;11.674;2022-07-23T07:06:17;101182.56;;;19.10
60731;BMP280;46580;52.114;11.674;2022-07-23T07:08:43;101188.63;;;19.18
60731;BMP280;46580;52.114;11.674;2022-07-23T07:11:09;101183.00;;;18.90
60731;BMP280;46580;52.114;11.674;2022-07-23T07:13:35;101183.78;;;18.83
60731;BMP280;46580;52.114;11.674;2022-07-23T07:16:01;101182.69;;;18.93
60731;BMP280;46580;52.114;11.674;2022-07-23T07:18:26;101192.88;;;19.19
60731;BMP280;46580;52.114;11.674;2022-07-23T07:20:52;101180.91;;;19.01
60731;BMP280;46580;52.114;11.674;2022-07-23T07:23:18;101181.75;;;19.10
60731;BMP280;46580;52.114;11.674;2022-07-23T07:25:46;101186.50;;;19.22
60731;BMP280;46580;52.114;11.674;2022-07-23T07:28:11;101184.91;;;19.36
60731;BMP280;46580;52.114;11.674;2022-07-23T07:30:37;101181.81;;;19.41
60731;BMP280;46580;52.114;11.674;2022-07-23T07:33:02;101192.41;;;19.32
60731;BMP280;46580;52.114;11.674;2022-07-23T07:35:27;101205.25;;;19.74
60731;BMP280;46580;52.114;11.674;2022-07-23T07:37:53;101195.44;;;19.60
60731;BMP280;46580;52.114;11.674;2022-07-23T07:40:18;101201.66;;;19.67
60731;BMP280;46580;52.114;11.674;2022-07-23T07:42:48;101204.13;;;19.92
60731;BMP280;46580;52.114;11.674;2022-07-23T07:45:13;101197.06;;;19.69
60731;BMP280;46580;52.114;11.674;2022-07-23T07:47:42;101196.41;;;19.74
60731;BMP280;46580;52.114;11.674;2022-07-23T07:50:07;101195.13;;;20.02
60731;BMP280;46580;52.114;11.674;2022-07-23T07:52:34;101192.19;;;20.12
60731;BMP280;46580;52.114;11.674;2022-07-23T07:55:02;101204.28;;;19.98
60731;BMP280;46580;52.114;11.674;2022-07-23T07:57:27;101207.88;;;20.12
60731;BMP280;46580;52.114;11.674;2022-07-23T07:59:52;101207.84;;;20.44
60731;BMP280;46580;52.114;11.674;2022-07-23T08:02:18;101217.34;;;20.37
60731;BMP280;46580;52.114;11.674;2022-07-23T08:04:43;101209.31;;;20.62
60731;BMP280;46580;52.114;11.674;2022-07-23T08:07:09;101217.94;;;20.62
60731;BMP280;46580;52.114;11.674;2022-07-23T08:09:35;101225.31;;;20.67
60731;BMP280;46580;52.114;11.674;2022-07-23T08:12:00;101214.69;;;20.68
60731;BMP280;46580;52.114;11.674;2022-07-23T08:14:25;101210.59;;;20.66
60731;BMP280;46580;52.114;11.674;2022-07-23T08:16:51;101214.31;;;20.79
60731;BMP280;46580;52.114;11.674;2022-07-23T08:19:16;101211.50;;;20.88
60731;BMP280;46580;52.114;11.674;2022-07-23T08:21:41;101210.84;;;20.86
60731;BMP280;46580;52.114;11.674;2022-07-23T08:24:06;101216.09;;;20.86
60731;BMP280;46580;52.114;11.674;2022-07-23T08:26:32;101225.97;;;21.14
60731;BMP280;46580;52.114;11.674;2022-07-23T08:28:57;101220.09;;;21.12
60731;BMP280;46580;52.114;11.674;2022-07-23T08:31:23;101221.19;;;20.80
60731;BMP280;46580;52.114;11.674;2022-07-23T08:33:48;101234.28;;;20.64
60731;BMP280;46580;52.114;11.674;2022-07-23T08:36:15;101224.19;;;20.22
60731;BMP280;46580;52.114;11.674;2022-07-23T08:38:40;101233.00;;;20.68
60731;BMP280;46580;52.114;11.674;2022-07-23T08:41:07;101243.91;;;20.87
60731;BMP280;46580;52.114;11.674;2022-07-23T08:43:33;101237.69;;;20.80
60731;BMP280;46580;52.114;11.674;2022-07-23T08:46:01;101232.31;;;20.74
60731;BMP280;46580;52.114;11.674;2022-07-23T08:48:32;101238.09;;;20.54
60731;BMP280;46580;52.114;11.674;2022-07-23T08:51:00;101240.66;;;20.69
60731;BMP280;46580;52.114;11.674;2022-07-23T08:53:27;101246.56;;;20.64
60731;BMP280;46580;52.114;11.674;2022-07-23T08:55:55;101240.41;;;20.41
60731;BMP280;46580;52.114;11.674;2022-07-23T08:58:21;101238.03;;;20.77
60731;BMP280;46580;52.114;11.674;2022-07-23T09:00:50;101230.59;;;20.96
60731;BMP280;46580;52.114;11.674;2022-07-23T09:03:24;101226.38;;;21.33
60731;BMP280;46580;52.114;11.674;2022-07-23T09:05:50;101227.19;;;21.33
60731;BMP280;46580;52.114;11.674;2022-07-23T09:08:19;101229.72;;;21.49
60731;BMP280;46580;52.114;11.674;2022-07-23T09:10:51;101223.59;;;21.34
60731;BMP280;46580;52.114;11.674;2022-07-23T09:13:32;101232.88;;;21.66
60731;BMP280;46580;52.114;11.674;2022-07-23T09:19:08;101230.34;;;21.51
60731;BMP280;46580;52.114;11.674;2022-07-23T09:21:38;101228.78;;;21.42
60731;BMP280;46580;52.114;11.674;2022-07-23T09:24:12;101229.00;;;21.62
60731;BMP280;46580;52.114;11.674;2022-07-23T09:26:45;101228.97;;;21.84
60731;BMP280;46580;52.114;11.674;2022-07-23T09:29:18;101222.25;;;21.68
60731;BMP280;46580;52.114;11.674;2022-07-23T09:31:46;101229.84;;;21.55
60731;BMP280;46580;52.114;11.674;2022-07-23T09:34:31;101219.78;;;21.66
60731;BMP280;46580;52.114;11.674;2022-07-23T09:37:15;101218.75;;;21.75
60731;BMP280;46580;52.114;11.674;2022-07-23T09:39:43;101222.50;;;22.02
60731;BMP280;46580;52.114;11.674;2022-07-23T09:42:22;101225.09;;;22.38
60731;BMP280;46580;52.114;11.674;2022-07-23T09:44:52;101222.03;;;22.35
60731;BMP280;46580;52.114;11.674;2022-07-23T09:47:18;101227.97;;;22.15
60731;BMP280;46580;52.114;11.674;2022-07-23T09:50:08;101222.56;;;22.31
60731;BMP280;46580;52.114;11.674;2022-07-23T09:52:35;101227.38;;;22.41
60731;BMP280;46580;52.114;11.674;2022-07-23T09:55:05;101228.22;;;22.20
60731;BMP280;46580;52.114;11.674;2022-07-23T09:57:32;101230.63;;;22.29
60731;BMP280;46580;52.114;11.674;2022-07-23T10:00:03;101220.56;;;22.69
60731;BMP280;46580;52.114;11.674;2022-07-23T10:02:33;101222.56;;;22.81
60731;BMP280;46580;52.114;11.674;2022-07-23T10:05:01;101212.63;;;23.25
60731;BMP280;46580;52.114;11.674;2022-07-23T10:07:26;101218.19;;;23.30
60731;BMP280;46580;52.114;11.674;2022-07-23T10:09:55;101219.50;;;23.40
60731;BMP280;46580;52.114;11.674;2022-07-23T10:12:20;101209.50;;;23.30
60731;BMP280;46580;52.114;11.674;2022-07-23T10:14:50;101209.03;;;23.26
60731;BMP280;46580;52.114;11.674;2022-07-23T10:17:16;101210.22;;;23.58
60731;BMP280;46580;52.114;11.674;2022-07-23T10:19:42;101210.59;;;23.76
60731;BMP280;46580;52.114;11.674;2022-07-23T10:22:10;101207.91;;;23.90
60731;BMP280;46580;52.114;11.674;2022-07-23T10:29:55;101213.41;;;23.54
60731;BMP280;46580;52.114;11.674;2022-07-23T10:32:40;101208.94;;;23.20
60731;BMP280;46580;52.114;11.674;2022-07-23T10:37:47;101214.91;;;23.42
60731;BMP280;46580;52.114;11.674;2022-07-23T10:40:15;101208.97;;;23.54
60731;BMP280;46580;52.114;11.674;2022-07-23T10:42:42;101208.03;;;23.27
60731;BMP280;46580;52.114;11.674;2022-07-23T10:45:34;101209.50;;;23.30
60731;BMP280;46580;52.114;11.674;2022-07-23T10:48:17;101209.56;;;23.70
60731;BMP280;46580;52.114;11.674;2022-07-23T10:50:45;101204.06;;;23.72
60731;BMP280;46580;52.114;11.674;2022-07-23T10:56:14;101203.13;;;23.59
60731;BMP280;46580;52.114;11.674;2022-07-23T10:58:47;101202.47;;;23.50
60731;BMP280;46580;52.114;11.674;2022-07-23T11:03:58;101204.44;;;23.48
60731;BMP280;46580;52.114;11.674;2022-07-23T11:06:35;101194.22;;;23.25
60731;BMP280;46580;52.114;11.674;2022-07-23T11:09:29;101206.53;;;22.90
60731;BMP280;46580;52.114;11.674;2022-07-23T11:17:23;101207.03;;;23.83
60731;BMP280;46580;52.114;11.674;2022-07-23T11:25:28;101202.59;;;23.84
60731;BMP280;46580;52.114;11.674;2022-07-23T11:27:54;101200.31;;;24.22
60731;BMP280;46580;52.114;11.674;2022-07-23T11:32:52;101195.69;;;24.50
60731;BMP280;46580;52.114;11.674;2022-07-23T11:35:23;101191.44;;;24.23
60731;BMP280;46580;52.114;11.674;2022-07-23T11:37:49;101204.22;;;24.25
60731;BMP280;46580;52.114;11.674;2022-07-23T11:40:19;101188.56;;;24.71
60731;BMP280;46580;52.114;11.674;2022-07-23T11:43:11;101191.91;;;24.92
60731;BMP280;46580;52.114;11.674;2022-07-23T11:45:42;101178.94;;;24.91
60731;BMP280;46580;52.114;11.674;2022-07-23T11:48:15;101180.88;;;24.76
60731;BMP280;46580;52.114;11.674;2022-07-23T11:50:41;101201.00;;;24.57
60731;BMP280;46580;52.114;11.674;2022-07-23T11:53:06;101203.53;;;24.44
60731;BMP280;46580;52.114;11.674;2022-07-23T11:55:32;101183.09;;;24.73
60731;BMP280;46580;52.114;11.674;2022-07-23T11:57:57;101189.47;;;25.30
60731;BMP280;46580;52.114;11.674;2022-07-23T12:00:26;101186.00;;;25.23
60731;BMP280;46580;52.114;11.674;2022-07-23T12:02:55;101180.63;;;25.04
60731;BMP280;46580;52.114;11.674;2022-07-23T12:05:23;101181.84;;;25.08
60731;BMP280;46580;52.114;11.674;2022-07-23T12:07:53;101181.47;;;25.11
60731;BMP280;46580;52.114;11.674;2022-07-23T12:10:27;101193.78;;;25.04
60731;BMP280;46580;52.114;11.674;2022-07-23T12:15:23;101191.59;;;25.20
60731;BMP280;46580;52.114;11.674;2022-07-23T12:17:50;101178.66;;;25.19
60731;BMP280;46580;52.114;11.674;2022-07-23T12:20:27;101193.28;;;24.82
60731;BMP280;46580;52.114;11.674;2022-07-23T12:22:57;101189.69;;;25.41
60731;BMP280;46580;52.114;11.674;2022-07-23T12:25:24;101192.41;;;25.60
60731;BMP280;46580;52.114;11.674;2022-07-23T12:28:09;101183.41;;;25.42
60731;BMP280;46580;52.114;11.674;2022-07-23T12:30:43;101181.28;;;25.19
60731;BMP280;46580;52.114;11.674;2022-07-23T12:33:14;101185.38;;;24.82
60731;BMP280;46580;52.114;11.674;2022-07-23T12:35:45;101168.41;;;24.91
60731;BMP280;46580;52.114;11.674;2022-07-23T12:38:13;101179.16;;;25.54
60731;BMP280;46580;52.114;11.674;2022-07-23T12:40:42;101177.78;;;25.06
60731;BMP280;46580;52.114;11.674;2022-07-23T12:43:11;101167.06;;;25.14
60731;BMP280;46580;52.114;11.674;2022-07-23T12:53:24;101165.25;;;25.92
60731;BMP280;46580;52.114;11.674;2022-07-23T12:55:57;101176.44;;;26.12
60731;BMP280;46580;52.114;11.674;2022-07-23T12:58:24;101178.03;;;25.88
60731;BMP280;46580;52.114;11.674;2022-07-23T13:00:55;101166.69;;;25.94
60731;BMP280;46580;52.114;11.674;2022-07-23T13:03:32;101180.03;;;25.67
60731;BMP280;46580;52.114;11.674;2022-07-23T13:05:59;101172.78;;;26.26
60731;BMP280;46580;52.114;11.674;2022-07-23T13:08:27;101164.56;;;26.72
60731;BMP280;46580;52.114;11.674;2022-07-23T13:10:53;101166.25;;;26.60
60731;BMP280;46580;52.114;11.674;2022-07-23T13:13:23;101166.63;;;26.57
60731;BMP280;46580;52.114;11.674;2022-07-23T13:15:49;101164.38;;;26.73
60731;BMP280;46580;52.114;11.674;2022-07-23T13:18:14;101164.47;;;27.46
60731;BMP280;46580;52.114;11.674;2022-07-23T13:20:39;101172.38;;;26.04
60731;BMP280;46580;52.114;11.674;2022-07-23T13:23:19;101171.50;;;26.35
60731;BMP280;46580;52.114;11.674;2022-07-23T13:25:46;101157.97;;;27.00
60731;BMP280;46580;52.114;11.674;2022-07-23T13:28:12;101172.09;;;26.75
60731;BMP280;46580;52.114;11.674;2022-07-23T13:30:38;101177.59;;;26.73
60731;BMP280;46580;52.114;11.674;2022-07-23T13:33:04;101169.88;;;25.58
60731;BMP280;46580;52.114;11.674;2022-07-23T13:35:30;101175.41;;;25.17
60731;BMP280;46580;52.114;11.674;2022-07-23T13:37:55;101177.34;;;25.54
60731;BMP280;46580;52.114;11.674;2022-07-23T13:40:21;101169.09;;;26.52
60731;BMP280;46580;52.114;11.674;2022-07-23T13:42:47;101162.59;;;26.61
60731;BMP280;46580;52.114;11.674;2022-07-23T13:45:13;101160.72;;;26.62
60731;BMP280;46580;52.114;11.674;2022-07-23T13:47:38;101162.44;;;26.06
60731;BMP280;46580;52.114;11.674;2022-07-23T13:50:04;101172.34;;;26.29
60731;BMP280;46580;52.114;11.674;2022-07-23T13:52:30;101170.50;;;26.67
60731;BMP280;46580;52.114;11.674;2022-07-23T13:54:55;101167.66;;;26.56
60731;BMP280;46580;52.114;11.674;2022-07-23T13:57:20;101172.94;;;27.18
60731;BMP280;46580;52.114;11.674;2022-07-23T13:59:46;101167.06;;;27.53
60731;BMP280;46580;52.114;11.674;2022-07-23T14:02:14;101166.44;;;27.87
60731;BMP280;46580;52.114;11.674;2022-07-23T14:04:40;101164.53;;;27.70
60731;BMP280;46580;52.114;11.674;2022-07-23T14:07:06;101160.75;;;26.55
60731;BMP280;46580;52.114;11.674;2022-07-23T14:09:31;101158.97;;;26.11
60731;BMP280;46580;52.114;11.674;2022-07-23T14:11:59;101174.00;;;26.11
60731;BMP280;46580;52.114;11.674;2022-07-23T14:14:24;101155.25;;;26.44
60731;BMP280;46580;52.114;11.674;2022-07-23T14:16:49;101164.66;;;27.45
60731;BMP280;46580;52.114;11.674;2022-07-23T14:19:15;101162.59;;;25.85
60731;BMP280;46580;52.114;11.674;2022-07-23T14:21:40;101165.03;;;25.80
60731;BMP280;46580;52.114;11.674;2022-07-23T14:24:06;101156.88;;;26.58